createdAt,value
2018-03-27T00:00:53.470Z,16.50
2018-03-27T00:03:20.895Z,16.47
2018-03-27T00:05:48.302Z,15.20
2018-03-27T00:08:15.722Z,15.13
2018-03-27T00:10:43.134Z,17.27
2018-03-27T00:13:10.554Z,18.03
2018-03-27T00:15:37.968Z,17.63
2018-03-27T00:18:05.395Z,16.60
2018-03-27T00:20:32.802Z,15.70
2018-03-27T00:23:00.235Z,16.67
2018-03-27T00:25:27.654Z,16.63
2018-03-27T00:28:06.858Z,19.00
2018-03-27T00:30:45.885Z,19.67
2018-03-27T00:33:25.237Z,16.27
2018-03-27T00:36:04.218Z,19.20
2018-03-27T00:38:43.246Z,18.60
2018-03-27T00:41:22.353Z,19.40
2018-03-27T00:43:49.810Z,17.63
2018-03-27T00:46:17.242Z,16.57
2018-03-27T00:48:44.645Z,18.00
2018-03-27T00:51:12.073Z,19.03
2018-03-27T00:53:39.483Z,21.93
2018-03-27T00:56:06.908Z,21.60
2018-03-27T00:58:34.333Z,20.67
2018-03-27T01:01:01.741Z,18.70
2018-03-27T01:03:29.462Z,18.50
2018-03-27T01:05:56.869Z,20.73
2018-03-27T01:08:24.285Z,18.40
2018-03-27T01:10:51.698Z,20.90
2018-03-27T01:13:19.107Z,21.13
2018-03-27T01:15:46.537Z,21.53
2018-03-27T01:18:13.950Z,20.57
2018-03-27T01:20:41.385Z,22.73
2018-03-27T01:23:08.778Z,22.80
2018-03-27T01:25:36.187Z,22.10
2018-03-27T01:28:03.618Z,24.60
2018-03-27T01:30:31.042Z,25.17
2018-03-27T01:32:58.463Z,25.20
2018-03-27T01:35:26.162Z,18.73
2018-03-27T01:37:53.576Z,20.07
2018-03-27T01:40:20.977Z,22.10
2018-03-27T01:42:48.398Z,21.23
2018-03-27T01:45:15.936Z,20.67
2018-03-27T01:47:43.333Z,23.23
2018-03-27T01:50:10.750Z,24.70
2018-03-27T01:52:38.178Z,20.50
2018-03-27T01:55:05.587Z,18.37
2018-03-27T01:57:33.006Z,20.40
2018-03-27T02:00:00.414Z,20.07
2018-03-27T02:02:27.839Z,21.40
2018-03-27T02:04:55.273Z,24.70
2018-03-27T02:07:22.756Z,22.47
2018-03-27T02:09:50.242Z,25.33
2018-03-27T02:12:23.391Z,24.50
2018-03-27T02:14:56.539Z,25.03
2018-03-27T02:17:29.591Z,26.10
2018-03-27T02:20:02.586Z,25.57
2018-03-27T02:22:31.822Z,27.67
2018-03-27T02:24:59.234Z,28.63
2018-03-27T02:27:26.680Z,26.60
2018-03-27T02:29:54.117Z,23.97
2018-03-27T02:32:21.541Z,25.33
2018-03-27T02:34:49.006Z,22.17
2018-03-27T02:37:16.415Z,28.37
2018-03-27T02:39:43.886Z,24.53
2018-03-27T02:42:11.318Z,23.57
2018-03-27T02:44:38.738Z,22.93
2018-03-27T02:47:06.142Z,22.70
2018-03-27T02:49:33.573Z,26.00
2018-03-27T02:52:00.985Z,25.00
2018-03-27T02:54:28.471Z,25.70
2018-03-27T02:56:55.886Z,20.77
2018-03-27T02:59:23.337Z,22.13
2018-03-27T03:01:50.764Z,22.83
2018-03-27T03:04:18.205Z,21.13
2018-03-27T03:06:45.617Z,20.20
2018-03-27T03:09:13.053Z,23.73
2018-03-27T03:11:40.475Z,21.47
2018-03-27T03:14:07.893Z,27.77
2018-03-27T03:16:35.326Z,28.63
2018-03-27T03:19:02.789Z,23.53
2018-03-27T03:21:30.157Z,22.10
2018-03-27T03:23:57.577Z,21.83
2018-03-27T03:26:25.001Z,21.73
2018-03-27T03:28:52.405Z,25.80
2018-03-27T03:31:19.828Z,23.60
2018-03-27T03:33:47.232Z,21.83
2018-03-27T03:36:14.661Z,25.07
2018-03-27T03:38:42.075Z,22.57
2018-03-27T03:41:09.489Z,26.80
2018-03-27T03:43:36.907Z,25.10
2018-03-27T03:46:04.312Z,21.87
2018-03-27T03:48:31.742Z,22.27
2018-03-27T03:50:59.141Z,25.63
2018-03-27T03:53:26.570Z,24.33
2018-03-27T03:55:54.015Z,30.17
2018-03-27T03:58:21.477Z,32.47
2018-03-27T04:00:48.887Z,26.93
2018-03-27T04:03:16.310Z,30.67
2018-03-27T04:05:43.723Z,30.47
2018-03-27T04:08:11.141Z,30.27
2018-03-27T04:10:38.548Z,35.07
2018-03-27T04:13:05.973Z,31.63
2018-03-27T04:15:33.385Z,31.57
2018-03-27T04:18:00.806Z,33.57
2018-03-27T04:20:28.222Z,25.90
2018-03-27T04:22:55.642Z,26.73
2018-03-27T04:25:23.064Z,25.80
2018-03-27T04:27:50.482Z,24.13
2018-03-27T04:30:17.921Z,24.03
2018-03-27T04:32:45.325Z,23.13
2018-03-27T04:35:12.770Z,27.00
2018-03-27T04:37:40.193Z,32.07
2018-03-27T04:40:07.642Z,32.00
2018-03-27T04:42:35.050Z,28.83
2018-03-27T04:45:02.475Z,27.77
2018-03-27T04:47:29.894Z,30.23
2018-03-27T04:49:57.303Z,26.37
2018-03-27T04:52:24.749Z,29.97
2018-03-27T04:54:52.146Z,28.17
2018-03-27T04:57:19.566Z,25.83
2018-03-27T04:59:46.972Z,22.57
2018-03-27T05:02:14.399Z,20.13
2018-03-27T05:04:41.810Z,23.63
2018-03-27T05:07:09.236Z,23.67
2018-03-27T05:09:36.655Z,27.40
2018-03-27T05:12:04.148Z,29.70
2018-03-27T05:14:31.526Z,32.77
2018-03-27T05:16:58.962Z,32.13
2018-03-27T05:19:26.360Z,33.03
2018-03-27T05:21:53.785Z,31.40
2018-03-27T05:24:21.204Z,28.57
2018-03-27T05:26:48.629Z,27.03
2018-03-27T05:29:16.041Z,27.40
2018-03-27T05:31:43.474Z,31.57
2018-03-27T05:34:10.898Z,30.83
2018-03-27T05:36:38.326Z,32.00
2018-03-27T05:39:06.642Z,28.77
2018-03-27T05:41:34.054Z,24.97
2018-03-27T05:44:01.477Z,24.60
2018-03-27T05:46:28.914Z,24.10
2018-03-27T05:48:56.330Z,28.30
2018-03-27T05:51:23.754Z,31.53
2018-03-27T05:53:51.181Z,29.63
2018-03-27T05:56:18.590Z,31.90
2018-03-27T05:58:46.014Z,36.10
2018-03-27T06:01:13.429Z,31.57
2018-03-27T06:03:40.837Z,33.00
2018-03-27T06:06:08.261Z,28.87
2018-03-27T06:08:35.667Z,33.13
2018-03-27T06:11:03.099Z,29.57
2018-03-27T06:13:30.518Z,30.27
2018-03-27T06:15:57.937Z,27.47
2018-03-27T06:18:25.363Z,25.43
2018-03-27T06:20:52.780Z,27.63
2018-03-27T06:23:20.181Z,27.97
2018-03-27T06:25:47.600Z,26.43
2018-03-27T06:28:15.006Z,27.13
2018-03-27T06:30:42.422Z,28.40
2018-03-27T06:33:10.021Z,30.20
2018-03-27T06:35:37.421Z,28.43
2018-03-27T06:38:04.829Z,26.83
2018-03-27T06:40:32.257Z,26.30
2018-03-27T06:42:59.673Z,27.70
2018-03-27T06:45:27.114Z,25.57
2018-03-27T06:47:54.537Z,26.77
2018-03-27T06:50:22.037Z,31.47
2018-03-27T06:52:49.523Z,32.63
2018-03-27T06:55:17.007Z,31.17
2018-03-27T06:57:44.530Z,31.57
2018-03-27T07:00:11.957Z,29.30
2018-03-27T07:02:40.318Z,27.70
2018-03-27T07:05:07.731Z,29.13
2018-03-27T07:07:35.807Z,25.33
2018-03-27T07:10:04.284Z,30.00
2018-03-27T07:12:34.850Z,27.47
2018-03-27T07:15:02.330Z,27.27
2018-03-27T07:17:29.770Z,27.47
2018-03-27T07:19:57.214Z,24.37
2018-03-27T07:22:24.712Z,28.60
2018-03-27T07:24:52.590Z,28.03
2018-03-27T07:27:20.007Z,26.87
2018-03-27T07:29:47.434Z,30.03
2018-03-27T07:32:14.926Z,31.93
2018-03-27T07:34:42.349Z,32.70
2018-03-27T07:37:09.781Z,33.67
2018-03-27T07:39:37.193Z,30.63
2018-03-27T07:42:04.595Z,33.70
2018-03-27T07:44:32.027Z,28.30
2018-03-27T07:46:59.481Z,29.10
2018-03-27T07:49:26.907Z,29.27
2018-03-27T07:51:54.331Z,29.53
2018-03-27T07:54:21.748Z,27.13
2018-03-27T07:56:49.205Z,30.47
2018-03-27T07:59:16.621Z,26.53
2018-03-27T08:01:44.033Z,30.03
2018-03-27T08:04:11.453Z,27.80
2018-03-27T08:06:38.862Z,26.47
2018-03-27T08:09:06.299Z,27.70
2018-03-27T08:11:33.715Z,27.27
2018-03-27T08:14:01.205Z,29.03
2018-03-27T08:16:28.610Z,28.10
2018-03-27T08:18:56.021Z,26.33
2018-03-27T08:21:23.453Z,30.53
2018-03-27T08:23:50.862Z,31.43
2018-03-27T08:26:18.284Z,29.40
2018-03-27T08:28:45.710Z,31.13
2018-03-27T08:31:13.125Z,30.53
2018-03-27T08:33:40.549Z,34.57
2018-03-27T08:36:07.986Z,32.87
2018-03-27T08:38:35.414Z,32.20
2018-03-27T08:41:02.830Z,34.47
2018-03-27T08:43:30.262Z,41.00
2018-03-27T08:45:57.693Z,37.53
2018-03-27T08:48:25.157Z,39.30
2018-03-27T08:50:52.589Z,40.03
2018-03-27T08:53:20.068Z,38.03
2018-03-27T08:55:47.512Z,40.37
2018-03-27T08:58:15.003Z,42.40
2018-03-27T09:00:42.470Z,41.43
2018-03-27T09:03:09.850Z,45.07
2018-03-27T09:05:37.281Z,42.77
2018-03-27T09:08:04.690Z,47.53
2018-03-27T09:10:32.113Z,46.47
2018-03-27T09:12:59.527Z,45.53
2018-03-27T09:15:26.961Z,43.80
2018-03-27T09:17:54.387Z,48.23
2018-03-27T09:20:21.814Z,49.97
2018-03-27T09:22:49.242Z,48.57
2018-03-27T09:25:16.649Z,50.97
2018-03-27T09:27:44.107Z,54.67
2018-03-27T09:30:11.521Z,54.80
2018-03-27T09:32:38.934Z,52.43
2018-03-27T09:35:07.000Z,56.57
2018-03-27T09:37:34.454Z,54.97
2018-03-27T09:40:01.897Z,55.83
2018-03-27T09:42:29.311Z,59.40
2018-03-27T09:44:57.607Z,58.13
2018-03-27T09:47:25.079Z,60.17
2018-03-27T09:49:52.516Z,56.50
2018-03-27T09:52:19.972Z,56.43
2018-03-27T09:54:47.410Z,59.70
2018-03-27T09:57:14.819Z,61.37
2018-03-27T09:59:42.296Z,54.50
2018-03-27T10:02:09.715Z,63.17
2018-03-27T10:04:37.145Z,65.27
2018-03-27T10:07:05.362Z,66.03
2018-03-27T10:09:32.836Z,63.47
2018-03-27T10:12:00.249Z,67.93
2018-03-27T10:14:27.678Z,59.83
2018-03-27T10:16:55.138Z,59.77
2018-03-27T10:19:22.596Z,61.70
2018-03-27T10:21:50.041Z,62.93
2018-03-27T10:24:17.485Z,65.03
2018-03-27T10:26:44.955Z,66.47
2018-03-27T10:29:12.508Z,63.93
2018-03-27T10:31:39.933Z,73.77
2018-03-27T10:34:07.373Z,72.40
2018-03-27T10:36:34.782Z,66.40
2018-03-27T10:39:02.216Z,70.67
2018-03-27T10:41:29.629Z,70.87
2018-03-27T10:43:57.430Z,75.33
2018-03-27T10:46:24.853Z,74.97
2018-03-27T10:48:52.273Z,71.40
2018-03-27T10:51:19.698Z,71.57
2018-03-27T10:53:47.140Z,67.00
2018-03-27T10:56:14.572Z,72.03
2018-03-27T10:58:41.989Z,70.57
2018-03-27T11:01:09.430Z,68.67
2018-03-27T11:03:36.855Z,76.97
2018-03-27T11:06:04.281Z,71.93
2018-03-27T11:08:31.690Z,70.40
2018-03-27T11:10:59.440Z,70.27
2018-03-27T11:13:26.890Z,69.17
2018-03-27T11:15:54.338Z,70.70
2018-03-27T11:18:21.865Z,72.80
2018-03-27T11:20:49.289Z,73.03
2018-03-27T11:23:16.713Z,59.77
2018-03-27T11:25:44.133Z,56.00
2018-03-27T11:28:11.566Z,64.70
2018-03-27T11:30:38.987Z,60.33
2018-03-27T11:33:06.407Z,62.77
2018-03-27T11:35:33.825Z,60.70
2018-03-27T11:38:06.792Z,59.43
2018-03-27T11:40:34.258Z,63.23
2018-03-27T11:43:01.678Z,62.20
2018-03-27T11:45:29.128Z,43.73
2018-03-27T11:47:56.583Z,45.40
2018-03-27T11:50:24.178Z,47.07
2018-03-27T11:52:51.590Z,43.47
2018-03-27T11:55:19.006Z,42.30
2018-03-27T11:57:46.442Z,42.90
2018-03-27T12:00:13.855Z,48.27
2018-03-27T12:02:41.280Z,47.87
2018-03-27T12:05:08.695Z,47.43
2018-03-27T12:07:36.126Z,38.30
2018-03-27T12:10:03.538Z,52.00
2018-03-27T12:12:30.954Z,54.00
2018-03-27T12:14:58.382Z,49.53
2018-03-27T12:17:25.791Z,47.73
2018-03-27T12:19:53.203Z,48.10
2018-03-27T12:22:20.630Z,47.53
2018-03-27T12:24:48.044Z,48.87
2018-03-27T12:27:15.453Z,42.37
2018-03-27T12:29:42.878Z,40.10
2018-03-27T12:32:10.293Z,38.27
2018-03-27T12:34:37.712Z,36.73
2018-03-27T12:37:05.116Z,34.13
2018-03-27T12:39:32.549Z,41.53
2018-03-27T12:41:59.972Z,28.87
2018-03-27T12:44:27.452Z,23.80
2018-03-27T12:46:54.886Z,26.63
2018-03-27T12:49:22.366Z,25.10
2018-03-27T12:51:49.808Z,25.57
2018-03-27T12:54:17.215Z,27.20
2018-03-27T12:56:44.637Z,27.03
2018-03-27T12:59:12.062Z,25.40
2018-03-27T13:01:39.469Z,28.33
2018-03-27T13:04:06.890Z,25.23
2018-03-27T13:06:34.294Z,22.70
2018-03-27T13:09:01.719Z,23.60
2018-03-27T13:11:29.129Z,23.90
2018-03-27T13:13:56.544Z,24.80
2018-03-27T13:16:23.972Z,22.03
2018-03-27T13:18:51.382Z,27.73
2018-03-27T13:21:18.797Z,24.63
2018-03-27T13:23:46.210Z,22.07
2018-03-27T13:26:13.641Z,22.43
2018-03-27T13:28:41.046Z,22.03
2018-03-27T13:31:08.761Z,22.83
2018-03-27T13:33:36.165Z,21.87
2018-03-27T13:36:03.575Z,23.17
2018-03-27T13:38:30.994Z,22.40
2018-03-27T13:40:58.430Z,24.80
2018-03-27T13:43:25.849Z,24.13
2018-03-27T13:45:53.290Z,23.87
2018-03-27T13:48:20.720Z,21.63
2018-03-27T13:50:48.146Z,22.50
2018-03-27T13:53:15.574Z,24.87
2018-03-27T13:55:43.001Z,34.57
2018-03-27T13:58:10.425Z,32.40
2018-03-27T14:00:37.835Z,33.67
2018-03-27T14:03:05.261Z,34.90
2018-03-27T14:05:32.672Z,30.83
2018-03-27T14:08:00.102Z,22.17
2018-03-27T14:10:27.505Z,18.17
2018-03-27T14:12:54.959Z,24.60
2018-03-27T14:15:22.403Z,35.70
2018-03-27T14:17:49.868Z,32.47
2018-03-27T14:20:17.285Z,32.40
2018-03-27T14:22:44.715Z,31.50
2018-03-27T14:25:12.123Z,32.03
2018-03-27T14:27:39.537Z,35.87
2018-03-27T14:30:06.941Z,35.80
2018-03-27T14:32:34.370Z,29.40
2018-03-27T14:35:01.779Z,25.63
2018-03-27T14:37:29.204Z,28.67
2018-03-27T14:39:56.610Z,28.23
2018-03-27T14:42:24.030Z,30.97
2018-03-27T14:44:51.463Z,30.93
2018-03-27T14:47:18.870Z,30.60
2018-03-27T14:49:46.299Z,33.70
2018-03-27T14:52:13.699Z,34.60
2018-03-27T14:54:41.121Z,31.37
2018-03-27T14:57:08.533Z,33.60
2018-03-27T14:59:35.945Z,34.57
2018-03-27T15:02:03.362Z,31.67
2018-03-27T15:04:30.797Z,32.90
2018-03-27T15:06:58.262Z,31.63
2018-03-27T15:09:25.774Z,32.50
2018-03-27T15:11:53.236Z,31.37
2018-03-27T15:14:20.722Z,34.10
2018-03-27T15:16:48.642Z,34.13
2018-03-27T15:19:16.070Z,34.97
2018-03-27T15:21:43.493Z,34.77
2018-03-27T15:24:10.906Z,34.13
2018-03-27T15:26:38.344Z,34.90
2018-03-27T15:29:05.750Z,34.40
2018-03-27T15:31:33.191Z,31.90
2018-03-27T15:34:00.622Z,34.07
2018-03-27T15:36:28.085Z,32.60
2018-03-27T15:38:55.510Z,32.90
2018-03-27T15:41:22.950Z,31.57
2018-03-27T15:43:50.419Z,32.70
2018-03-27T15:46:17.853Z,35.17
2018-03-27T15:48:45.361Z,35.33
2018-03-27T15:51:12.795Z,35.53
2018-03-27T15:53:40.197Z,36.17
2018-03-27T15:56:07.629Z,34.70
2018-03-27T15:58:35.024Z,36.83
2018-03-27T16:01:02.456Z,34.50
2018-03-27T16:03:29.880Z,33.80
2018-03-27T16:05:57.313Z,35.80
2018-03-27T16:08:24.718Z,34.73
2018-03-27T16:10:52.125Z,35.13
2018-03-27T16:13:19.567Z,34.00
2018-03-27T16:15:46.945Z,33.97
2018-03-27T16:18:14.418Z,32.20
2018-03-27T16:20:41.882Z,34.20
2018-03-27T16:23:09.243Z,32.97
2018-03-27T16:25:36.649Z,32.03
2018-03-27T16:28:04.078Z,33.10
2018-03-27T16:30:31.492Z,31.60
2018-03-27T16:32:58.911Z,35.07
2018-03-27T16:35:26.324Z,32.17
2018-03-27T16:37:53.794Z,31.90
2018-03-27T16:40:21.166Z,32.47
2018-03-27T16:42:48.644Z,31.67
2018-03-27T16:45:16.070Z,33.37
2018-03-27T16:47:43.497Z,32.50
2018-03-27T16:50:10.914Z,34.53
2018-03-27T16:52:38.348Z,33.17
2018-03-27T16:55:05.762Z,24.53
2018-03-27T16:57:33.180Z,26.23
2018-03-27T17:00:00.634Z,25.03
2018-03-27T17:02:28.099Z,26.77
2018-03-27T17:04:55.569Z,22.80
2018-03-27T17:07:23.064Z,21.00
2018-03-27T17:09:58.438Z,20.80
2018-03-27T17:12:25.894Z,21.20
2018-03-27T17:15:06.864Z,25.30
2018-03-27T17:17:34.316Z,19.13
2018-03-27T17:20:01.734Z,19.53
2018-03-27T17:22:29.148Z,20.20
2018-03-27T17:24:56.627Z,19.90
2018-03-27T17:27:24.034Z,21.23
2018-03-27T17:29:51.464Z,19.97
2018-03-27T17:32:18.867Z,20.17
2018-03-27T17:34:46.302Z,20.63
2018-03-27T17:37:13.781Z,20.23
2018-03-27T17:39:41.134Z,20.87
2018-03-27T17:42:08.560Z,20.77
2018-03-27T17:44:36.452Z,20.47
2018-03-27T17:47:03.858Z,21.67
2018-03-27T17:49:31.453Z,20.97
2018-03-27T17:51:58.911Z,19.83
2018-03-27T17:54:26.364Z,19.90
2018-03-27T17:56:53.845Z,20.47
2018-03-27T17:59:21.290Z,22.07
2018-03-27T18:01:48.790Z,20.73
2018-03-27T18:04:16.222Z,20.53
2018-03-27T18:06:43.702Z,20.70
2018-03-27T18:09:11.129Z,19.50
2018-03-27T18:11:38.561Z,21.50
2018-03-27T18:14:05.969Z,21.83
2018-03-27T18:16:33.395Z,20.17
2018-03-27T18:19:00.797Z,19.67
2018-03-27T18:21:28.254Z,21.23
2018-03-27T18:23:55.682Z,22.27
2018-03-27T18:26:23.094Z,21.67
2018-03-27T18:28:50.505Z,20.43
2018-03-27T18:31:17.953Z,20.37
2018-03-27T18:33:45.357Z,20.40
2018-03-27T18:36:12.755Z,20.00
2018-03-27T18:38:40.181Z,21.27
2018-03-27T18:41:07.598Z,20.13
2018-03-27T18:43:35.018Z,22.27
2018-03-27T18:46:02.432Z,21.20
2018-03-27T18:48:29.845Z,20.17
2018-03-27T18:50:57.292Z,23.40
2018-03-27T18:53:24.693Z,21.80
2018-03-27T18:55:52.090Z,22.03
2018-03-27T18:58:19.507Z,23.20
2018-03-27T19:00:46.906Z,22.30
2018-03-27T19:03:14.609Z,23.90
2018-03-27T19:05:42.013Z,23.33
2018-03-27T19:08:09.425Z,24.40
2018-03-27T19:10:36.845Z,23.73
2018-03-27T19:13:04.291Z,23.33
2018-03-27T19:15:31.727Z,26.47
2018-03-27T19:17:59.251Z,24.70
2018-03-27T19:20:26.757Z,25.87
2018-03-27T19:22:54.295Z,26.23
2018-03-27T19:25:22.172Z,25.87
2018-03-27T19:27:50.359Z,26.67
2018-03-27T19:30:17.988Z,27.97
2018-03-27T19:32:45.426Z,28.80
2018-03-27T19:35:12.829Z,28.70
2018-03-27T19:37:40.526Z,27.87
2018-03-27T19:40:07.929Z,28.17
2018-03-27T19:42:35.351Z,27.40
2018-03-27T19:45:02.765Z,30.93
2018-03-27T19:47:30.169Z,30.80
2018-03-27T19:49:57.597Z,32.43
2018-03-27T19:52:25.109Z,31.13
2018-03-27T19:54:52.492Z,33.50
2018-03-27T19:57:19.977Z,32.60
2018-03-27T19:59:47.506Z,35.33
2018-03-27T20:02:14.985Z,34.27
2018-03-27T20:04:42.381Z,33.80
2018-03-27T20:07:09.796Z,37.90
2018-03-27T20:09:37.212Z,36.23
2018-03-27T20:12:04.769Z,37.27
2018-03-27T20:14:32.173Z,36.20
2018-03-27T20:16:59.615Z,35.40
2018-03-27T20:19:27.046Z,36.03
2018-03-27T20:21:54.502Z,38.33
2018-03-27T20:24:22.026Z,39.07
2018-03-27T20:26:49.831Z,38.03
2018-03-27T20:29:17.233Z,40.27
2018-03-27T20:31:44.655Z,40.30
2018-03-27T20:34:12.072Z,38.47
2018-03-27T20:36:39.493Z,39.20
2018-03-27T20:39:06.898Z,35.60
2018-03-27T20:41:34.313Z,36.70
2018-03-27T20:44:01.738Z,41.10
2018-03-27T20:46:29.272Z,40.97
2018-03-27T20:48:56.783Z,43.37
2018-03-27T20:51:24.210Z,42.23
2018-03-27T20:53:51.717Z,40.27
2018-03-27T20:56:20.220Z,42.17
2018-03-27T20:58:47.828Z,39.13
2018-03-27T21:01:15.226Z,37.20
2018-03-27T21:03:42.699Z,40.20
2018-03-27T21:06:10.077Z,40.17
2018-03-27T21:08:37.622Z,40.93
2018-03-27T21:11:05.110Z,42.53
2018-03-27T21:13:32.509Z,39.43
2018-03-27T21:16:00.095Z,39.90
2018-03-27T21:18:27.604Z,38.63
2018-03-27T21:20:55.181Z,38.70
2018-03-27T21:23:22.919Z,37.57
2018-03-27T21:25:50.415Z,39.57
2018-03-27T21:28:17.838Z,38.47
2018-03-27T21:30:45.402Z,36.93
2018-03-27T21:33:12.811Z,40.07
2018-03-27T21:35:40.235Z,36.90
2018-03-27T21:38:07.674Z,42.10
2018-03-27T21:40:35.104Z,48.93
2018-03-27T21:43:02.538Z,46.73
2018-03-27T21:45:30.283Z,51.37
2018-03-27T21:47:57.782Z,44.83
2018-03-27T21:50:25.250Z,47.97
2018-03-27T21:52:52.825Z,48.97
2018-03-27T21:55:20.381Z,52.03
2018-03-27T21:57:47.893Z,52.13
2018-03-27T22:00:15.314Z,49.93
2018-03-27T22:02:42.785Z,51.13
2018-03-27T22:05:10.190Z,51.80
2018-03-27T22:07:37.620Z,52.50
2018-03-27T22:10:05.210Z,52.63
2018-03-27T22:12:32.618Z,47.70
2018-03-27T22:15:00.075Z,46.77
2018-03-27T22:17:27.609Z,45.67
2018-03-27T22:19:55.071Z,46.00
2018-03-27T22:22:22.730Z,42.33
2018-03-27T22:24:50.188Z,49.80
2018-03-27T22:27:17.608Z,50.47
2018-03-27T22:29:45.054Z,51.90
2018-03-27T22:32:12.500Z,42.70
2018-03-27T22:34:39.978Z,48.00
2018-03-27T22:37:07.331Z,34.37
2018-03-27T22:39:34.725Z,40.30
2018-03-27T22:42:02.155Z,34.00
2018-03-27T22:44:29.580Z,32.40
2018-03-27T22:46:56.998Z,32.07
2018-03-27T22:49:24.497Z,27.87
2018-03-27T22:51:51.986Z,26.50
2018-03-27T22:54:19.428Z,27.57
2018-03-27T22:56:46.839Z,26.53
2018-03-27T22:59:14.384Z,24.90
2018-03-27T23:01:41.777Z,25.30
2018-03-27T23:04:09.250Z,25.50
2018-03-27T23:06:36.682Z,26.20
2018-03-27T23:09:04.106Z,25.93
2018-03-27T23:11:31.519Z,24.70
2018-03-27T23:13:58.962Z,25.10
2018-03-27T23:16:26.450Z,23.07
2018-03-27T23:18:53.955Z,24.27
2018-03-27T23:21:21.536Z,23.97
2018-03-27T23:23:48.975Z,21.53
2018-03-27T23:26:16.375Z,24.07
2018-03-27T23:28:43.807Z,19.03
2018-03-27T23:31:11.251Z,21.17
2018-03-27T23:33:38.658Z,21.17
2018-03-27T23:36:06.091Z,20.83
2018-03-27T23:38:33.494Z,21.77
2018-03-27T23:41:00.909Z,20.20
2018-03-27T23:43:28.369Z,20.17
2018-03-27T23:45:55.898Z,18.50
2018-03-27T23:48:23.369Z,18.80
2018-03-27T23:50:50.909Z,18.50
2018-03-27T23:53:18.356Z,18.33
2018-03-27T23:55:45.776Z,18.60
2018-03-27T23:58:13.183Z,19.00
